createdAt,value
2022-08-14T00:00:50.284Z,21.83
2022-08-14T00:03:40.515Z,21.31
2022-08-14T00:06:29.387Z,21.50
2022-08-14T00:09:16.812Z,21.87
2022-08-14T00:12:06.828Z,21.86
2022-08-14T00:15:18.950Z,22.00
2022-08-14T00:18:08.204Z,21.89
2022-08-14T00:21:02.897Z,21.30
2022-08-14T00:23:54.084Z,21.73
2022-08-14T00:26:41.463Z,21.13
2022-08-14T00:29:32.922Z,21.57
2022-08-14T00:32:51.868Z,21.49
2022-08-14T00:36:33.970Z,21.41
2022-08-14T00:38:42.465Z,20.42
2022-08-14T00:41:32.326Z,21.38
2022-08-14T00:44:21.507Z,20.71
2022-08-14T00:47:19.754Z,21.27
2022-08-14T00:50:09.647Z,21.19
2022-08-14T00:53:06.709Z,21.15
2022-08-14T00:55:59.500Z,20.52
2022-08-14T00:58:48.555Z,19.85
2022-08-14T01:01:36.996Z,20.60
2022-08-14T01:04:38.432Z,21.03
2022-08-14T01:07:38.604Z,19.73
2022-08-14T01:10:48.086Z,20.61
2022-08-14T01:13:42.542Z,21.15
2022-08-14T01:16:31.638Z,21.12
2022-08-14T01:19:37.748Z,21.13
2022-08-14T01:22:26.644Z,20.88
2022-08-14T01:25:15.894Z,20.63
2022-08-14T01:28:04.469Z,21.03
2022-08-14T01:30:59.426Z,20.36
2022-08-14T01:33:59.710Z,20.68
2022-08-14T01:36:57.221Z,20.21
2022-08-14T01:39:44.886Z,20.73
2022-08-14T01:42:36.068Z,21.04
2022-08-14T01:45:25.470Z,21.04
2022-08-14T01:48:16.202Z,20.77
2022-08-14T01:51:19.127Z,20.97
2022-08-14T01:54:14.273Z,20.79
2022-08-14T01:57:02.354Z,19.12
2022-08-14T01:59:56.947Z,20.04
2022-08-14T02:02:46.603Z,20.38
2022-08-14T02:05:35.534Z,20.78
2022-08-14T02:08:35.336Z,20.75
2022-08-14T02:11:24.576Z,20.68
2022-08-14T02:14:14.141Z,20.63
2022-08-14T02:17:02.091Z,20.40
2022-08-14T02:19:50.536Z,19.73
2022-08-14T02:22:47.727Z,20.19
2022-08-14T02:25:35.967Z,19.73
2022-08-14T02:28:56.280Z,20.22
2022-08-14T02:31:42.238Z,19.62
2022-08-14T02:34:33.625Z,20.09
2022-08-14T02:37:23.595Z,19.67
2022-08-14T02:40:32.214Z,19.62
2022-08-14T02:43:22.602Z,19.82
2022-08-14T02:46:11.303Z,19.82
2022-08-14T02:49:06.177Z,19.91
2022-08-14T02:51:56.272Z,19.85
2022-08-14T02:54:44.220Z,19.65
2022-08-14T02:57:40.196Z,19.77
2022-08-14T03:00:28.424Z,19.42
2022-08-14T03:03:17.281Z,19.76
2022-08-14T03:06:05.813Z,19.75
2022-08-14T03:08:54.278Z,19.75
2022-08-14T03:11:45.022Z,19.75
2022-08-14T03:14:36.641Z,19.18
2022-08-14T03:17:24.265Z,19.19
2022-08-14T03:20:13.332Z,19.71
2022-08-14T03:23:02.990Z,17.33
2022-08-14T03:25:51.629Z,19.59
2022-08-14T03:28:41.321Z,18.88
2022-08-14T03:31:30.134Z,19.67
2022-08-14T03:34:24.759Z,19.64
2022-08-14T03:37:51.008Z,18.90
2022-08-14T03:40:34.025Z,18.94
2022-08-14T03:43:21.628Z,19.28
2022-08-14T03:46:51.994Z,19.30
2022-08-14T03:49:24.211Z,19.63
2022-08-14T03:52:37.763Z,19.60
2022-08-14T03:55:23.164Z,19.30
2022-08-14T03:58:11.149Z,19.78
2022-08-14T04:01:12.604Z,19.83
2022-08-14T04:04:02.614Z,19.78
2022-08-14T04:06:51.424Z,19.36
2022-08-14T04:09:40.058Z,19.77
2022-08-14T04:12:28.099Z,19.21
2022-08-14T04:15:15.634Z,19.23
2022-08-14T04:18:08.491Z,19.52
2022-08-14T04:20:59.388Z,19.68
2022-08-14T04:23:56.915Z,19.14
2022-08-14T04:26:45.377Z,19.17
2022-08-14T04:29:39.601Z,19.59
2022-08-14T04:32:58.815Z,18.59
2022-08-14T04:35:55.540Z,19.49
2022-08-14T04:39:03.303Z,18.45
2022-08-14T04:42:14.153Z,19.19
2022-08-14T04:45:01.693Z,19.22
2022-08-14T04:48:09.996Z,19.43
2022-08-14T04:50:58.057Z,19.57
2022-08-14T04:53:48.212Z,20.02
2022-08-14T04:56:35.637Z,20.06
2022-08-14T04:59:24.014Z,20.15
2022-08-14T05:02:11.731Z,19.59
2022-08-14T05:04:59.218Z,19.73
2022-08-14T05:08:01.255Z,19.98
2022-08-14T05:10:54.671Z,20.45
2022-08-14T05:16:52.146Z,20.60
2022-08-14T05:19:44.733Z,20.68
2022-08-14T05:22:52.052Z,20.72
2022-08-14T05:25:43.712Z,20.36
2022-08-14T05:28:33.472Z,20.84
2022-08-14T05:31:21.327Z,20.96
2022-08-14T05:34:09.751Z,21.00
2022-08-14T05:37:02.479Z,20.83
2022-08-14T05:39:50.593Z,22.16
2022-08-14T05:42:37.968Z,24.11
2022-08-14T05:45:25.619Z,25.60
2022-08-14T05:48:32.675Z,25.96
2022-08-14T05:51:22.143Z,26.63
2022-08-14T05:54:26.540Z,27.13
2022-08-14T05:57:14.984Z,28.11
2022-08-14T06:00:02.997Z,29.09
2022-08-14T06:02:51.501Z,29.51
2022-08-14T06:05:40.370Z,30.20
2022-08-14T06:08:36.327Z,29.34
2022-08-14T06:11:30.928Z,30.12
2022-08-14T06:14:21.392Z,30.84
2022-08-14T06:17:11.074Z,31.22
2022-08-14T06:20:14.485Z,31.84
2022-08-14T06:23:01.988Z,31.52
2022-08-14T06:25:51.984Z,31.94
2022-08-14T06:28:41.024Z,32.18
2022-08-14T06:31:33.587Z,33.79
2022-08-14T06:35:03.612Z,34.23
2022-08-14T06:37:28.391Z,34.54
2022-08-14T06:40:27.399Z,34.68
2022-08-14T06:43:17.059Z,34.53
2022-08-14T06:46:04.611Z,34.92
2022-08-14T06:49:00.345Z,34.37
2022-08-14T06:51:47.702Z,33.78
2022-08-14T06:54:37.298Z,33.74
2022-08-14T06:57:25.083Z,32.87
2022-08-14T07:00:40.259Z,32.64
2022-08-14T07:03:52.571Z,33.21
2022-08-14T07:06:46.557Z,32.73
2022-08-14T07:09:43.897Z,32.80
2022-08-14T07:13:01.274Z,33.90
2022-08-14T07:15:49.087Z,34.86
2022-08-14T07:18:42.526Z,36.10
2022-08-14T07:21:30.247Z,35.81
2022-08-14T07:24:21.437Z,36.45
2022-08-14T07:27:13.917Z,37.23
2022-08-14T07:30:09.028Z,37.51
2022-08-14T07:32:56.505Z,36.73
2022-08-14T07:35:57.733Z,35.36
2022-08-14T07:38:45.383Z,34.47
2022-08-14T07:41:39.914Z,33.81
2022-08-14T07:44:35.921Z,34.81
2022-08-14T07:47:33.111Z,35.30
2022-08-14T07:50:21.087Z,35.51
2022-08-14T07:53:10.413Z,36.49
2022-08-14T07:56:00.280Z,35.61
2022-08-14T07:58:58.510Z,33.93
2022-08-14T08:01:48.299Z,35.66
2022-08-14T08:04:43.826Z,34.36
2022-08-14T08:07:32.139Z,35.56
2022-08-14T08:11:01.977Z,36.62
2022-08-14T08:13:41.875Z,36.65
2022-08-14T08:16:38.232Z,36.78
2022-08-14T08:19:26.174Z,35.98
2022-08-14T08:22:27.370Z,35.79
2022-08-14T08:25:20.329Z,37.96
2022-08-14T08:28:25.093Z,37.62
2022-08-14T08:31:13.878Z,37.62
2022-08-14T08:34:06.378Z,37.72
2022-08-14T08:36:53.837Z,37.58
2022-08-14T08:40:03.305Z,36.86
2022-08-14T08:42:53.310Z,37.73
2022-08-14T08:45:44.495Z,38.91
2022-08-14T08:48:53.767Z,39.04
2022-08-14T08:51:43.167Z,38.44
2022-08-14T08:54:31.648Z,37.77
2022-08-14T08:57:21.515Z,37.77
2022-08-14T09:00:24.242Z,37.13
2022-08-14T09:03:20.639Z,38.97
2022-08-14T09:07:00.805Z,38.45
2022-08-14T09:09:34.068Z,39.42
2022-08-14T09:12:41.273Z,38.79
2022-08-14T09:15:36.614Z,39.84
2022-08-14T09:18:30.003Z,38.66
2022-08-14T09:21:18.630Z,38.80
2022-08-14T09:24:26.935Z,38.26
2022-08-14T09:27:22.715Z,38.86
2022-08-14T09:30:12.935Z,38.88
2022-08-14T09:33:56.351Z,38.88
2022-08-14T09:37:04.042Z,37.76
2022-08-14T09:40:09.999Z,38.43
2022-08-14T09:43:24.575Z,38.52
2022-08-14T09:46:16.972Z,38.27
2022-08-14T09:50:05.999Z,38.95
2022-08-14T09:53:02.970Z,37.12
2022-08-14T09:55:59.791Z,38.26
2022-08-14T09:58:47.683Z,38.74
2022-08-14T10:01:40.359Z,38.39
2022-08-14T10:04:33.649Z,37.29
2022-08-14T10:07:31.590Z,37.81
2022-08-14T10:10:34.432Z,36.87
2022-08-14T10:13:24.674Z,36.58
2022-08-14T10:16:25.770Z,35.72
2022-08-14T10:19:16.949Z,34.82
2022-08-14T10:23:11.249Z,35.27
2022-08-14T10:25:18.432Z,34.10
2022-08-14T10:28:06.269Z,34.61
2022-08-14T10:31:26.914Z,33.49
2022-08-14T10:34:21.191Z,33.01
2022-08-14T10:37:23.617Z,31.84
2022-08-14T10:40:38.804Z,30.94
2022-08-14T10:43:32.078Z,30.96
2022-08-14T10:47:37.332Z,33.19
2022-08-14T10:49:27.504Z,33.12
2022-08-14T10:52:24.825Z,32.44
2022-08-14T10:55:15.619Z,33.07
2022-08-14T10:58:02.934Z,32.57
2022-08-14T11:00:58.349Z,32.69
2022-08-14T11:03:55.902Z,32.95
2022-08-14T11:06:52.984Z,32.87
2022-08-14T11:09:41.786Z,30.88
2022-08-14T11:12:48.007Z,32.83
2022-08-14T11:15:36.769Z,32.95
2022-08-14T11:18:32.059Z,32.18
2022-08-14T11:21:23.328Z,32.85
2022-08-14T11:24:54.181Z,33.06
2022-08-14T11:27:25.736Z,32.97
2022-08-14T11:30:51.144Z,33.21
2022-08-14T11:33:32.728Z,33.36
2022-08-14T11:36:56.886Z,32.90
2022-08-14T11:39:37.010Z,31.61
2022-08-14T11:42:57.848Z,32.06
2022-08-14T11:45:37.430Z,32.87
2022-08-14T11:49:03.870Z,33.41
2022-08-14T11:51:42.872Z,32.77
2022-08-14T11:54:42.703Z,33.29
2022-08-14T11:57:30.541Z,30.53
2022-08-14T12:00:19.695Z,32.82
2022-08-14T12:03:07.513Z,31.50
2022-08-14T12:06:28.514Z,32.49
2022-08-14T12:09:36.668Z,32.44
2022-08-14T12:12:35.568Z,32.36
2022-08-14T12:15:35.992Z,32.44
2022-08-14T12:18:43.471Z,32.51
2022-08-14T12:21:32.384Z,30.55
2022-08-14T12:24:35.725Z,30.86
2022-08-14T12:27:25.309Z,33.20
2022-08-14T12:30:42.437Z,33.71
2022-08-14T12:33:33.958Z,33.24
2022-08-14T12:36:22.227Z,32.54
2022-08-14T12:39:23.901Z,31.82
2022-08-14T12:42:27.193Z,31.13
2022-08-14T12:45:32.843Z,31.88
2022-08-14T12:48:31.511Z,32.09
2022-08-14T12:51:21.832Z,33.39
2022-08-14T12:54:27.416Z,31.23
2022-08-14T12:57:20.165Z,33.47
2022-08-14T13:00:23.049Z,33.72
2022-08-14T13:03:24.009Z,33.96
2022-08-14T13:06:14.995Z,33.95
2022-08-14T13:09:04.724Z,34.89
2022-08-14T13:12:31.959Z,35.13
2022-08-14T13:15:12.315Z,34.32
2022-08-14T13:18:04.837Z,32.68
2022-08-14T13:21:01.025Z,33.28
2022-08-14T13:23:49.842Z,33.22
2022-08-14T13:26:37.390Z,32.83
2022-08-14T13:29:31.947Z,34.03
2022-08-14T13:32:20.562Z,31.93
2022-08-14T13:35:12.147Z,32.07
2022-08-14T13:38:04.080Z,30.21
2022-08-14T13:40:56.029Z,32.37
2022-08-14T13:43:49.294Z,30.50
2022-08-14T13:46:48.681Z,32.85
2022-08-14T13:49:57.125Z,30.22
2022-08-14T13:52:56.761Z,30.87
2022-08-14T13:55:44.482Z,32.22
2022-08-14T13:58:39.875Z,31.02
2022-08-14T14:04:51.500Z,32.01
2022-08-14T14:07:43.443Z,32.17
2022-08-14T14:10:33.240Z,31.15
2022-08-14T14:13:22.179Z,32.38
2022-08-14T14:16:12.023Z,32.41
2022-08-14T14:19:09.570Z,32.53
2022-08-14T14:21:57.969Z,32.41
2022-08-14T14:24:46.609Z,32.12
2022-08-14T14:27:40.839Z,29.78
2022-08-14T14:30:52.967Z,32.17
2022-08-14T14:33:46.851Z,31.77
2022-08-14T14:36:36.516Z,32.42
2022-08-14T14:39:26.800Z,32.59
2022-08-14T14:42:18.294Z,32.37
2022-08-14T14:45:15.497Z,32.50
2022-08-14T14:48:06.525Z,33.09
2022-08-14T14:50:53.849Z,33.40
2022-08-14T14:53:42.574Z,33.68
2022-08-14T14:56:47.698Z,33.77
2022-08-14T14:59:38.771Z,34.14
2022-08-14T15:02:32.315Z,34.37
2022-08-14T15:05:22.235Z,32.17
2022-08-14T15:08:10.970Z,32.38
2022-08-14T15:11:05.460Z,33.62
2022-08-14T15:14:01.585Z,31.29
2022-08-14T15:17:08.969Z,33.73
2022-08-14T15:19:58.177Z,33.77
2022-08-14T15:22:51.366Z,33.48
2022-08-14T15:25:40.259Z,33.52
2022-08-14T15:28:27.683Z,33.50
2022-08-14T15:31:26.927Z,33.52
2022-08-14T15:34:45.103Z,32.39
2022-08-14T15:37:32.621Z,32.67
2022-08-14T15:40:22.730Z,32.20
2022-08-14T15:43:13.007Z,33.67
2022-08-14T15:46:02.550Z,33.66
2022-08-14T15:48:53.790Z,33.23
2022-08-14T15:51:44.004Z,33.56
2022-08-14T15:54:32.642Z,32.30
2022-08-14T15:57:21.279Z,33.70
2022-08-14T16:00:43.881Z,32.68
2022-08-14T16:03:40.854Z,32.44
2022-08-14T16:06:31.076Z,31.50
2022-08-14T16:09:18.530Z,32.78
2022-08-14T16:12:09.015Z,32.98
2022-08-14T16:14:57.461Z,33.16
2022-08-14T16:17:46.993Z,30.87
2022-08-14T16:20:42.384Z,32.50
2022-08-14T16:23:36.128Z,33.26
2022-08-14T16:26:29.809Z,33.13
2022-08-14T16:29:20.721Z,32.47
2022-08-14T16:32:33.263Z,33.05
2022-08-14T16:35:18.179Z,32.08
2022-08-14T16:38:19.665Z,32.10
2022-08-14T16:41:17.184Z,32.48
2022-08-14T16:44:21.891Z,32.12
2022-08-14T16:47:22.650Z,30.74
2022-08-14T16:50:11.804Z,32.26
2022-08-14T16:53:04.227Z,31.77
2022-08-14T16:56:23.114Z,31.46
2022-08-14T16:59:17.143Z,30.67
2022-08-14T17:02:06.663Z,31.30
2022-08-14T17:05:21.275Z,31.51
2022-08-14T17:08:33.108Z,31.06
2022-08-14T17:11:17.483Z,31.64
2022-08-14T17:14:10.144Z,30.61
2022-08-14T17:16:59.532Z,31.29
2022-08-14T17:19:47.937Z,30.12
2022-08-14T17:22:43.523Z,31.05
2022-08-14T17:28:52.304Z,30.21
2022-08-14T17:31:57.854Z,29.35
2022-08-14T17:34:51.819Z,29.48
2022-08-14T17:37:44.987Z,30.11
2022-08-14T17:40:33.237Z,30.52
2022-08-14T17:43:41.189Z,30.44
2022-08-14T17:46:43.939Z,28.32
2022-08-14T17:49:42.492Z,28.72
2022-08-14T17:52:36.531Z,29.39
2022-08-14T17:56:03.188Z,30.11
2022-08-14T17:58:38.690Z,27.04
2022-08-14T18:01:31.394Z,29.76
2022-08-14T18:04:28.539Z,29.66
2022-08-14T18:07:50.435Z,26.89
2022-08-14T18:10:52.306Z,27.97
2022-08-14T18:13:51.712Z,28.16
2022-08-14T18:16:47.722Z,29.45
2022-08-14T18:19:41.660Z,28.10
2022-08-14T18:22:37.820Z,25.73
2022-08-14T18:25:29.268Z,28.45
2022-08-14T18:28:48.259Z,27.76
2022-08-14T18:31:41.961Z,28.97
2022-08-14T18:34:50.772Z,28.03
2022-08-14T18:37:39.643Z,25.16
2022-08-14T18:40:34.766Z,25.19
2022-08-14T18:43:44.456Z,28.52
2022-08-14T20:14:37.611Z,23.41
2022-08-14T20:17:27.661Z,25.31
2022-08-14T20:20:24.383Z,25.78
2022-08-14T20:26:31.892Z,25.56
2022-08-14T20:29:31.333Z,24.42
2022-08-14T20:32:32.520Z,24.81
2022-08-14T20:35:41.879Z,25.10
2022-08-14T20:38:33.785Z,22.39
2022-08-14T20:41:23.339Z,23.93
2022-08-14T20:44:29.769Z,24.74
2022-08-14T20:47:17.409Z,25.10
2022-08-14T20:50:28.398Z,24.80
2022-08-14T20:53:35.563Z,21.66
2022-08-14T20:56:28.543Z,23.29
2022-08-14T20:59:23.973Z,23.72
2022-08-14T21:02:50.195Z,22.58
2022-08-14T21:05:38.759Z,22.30
2022-08-14T21:08:37.444Z,24.53
2022-08-14T21:11:28.104Z,24.71
2022-08-14T21:14:28.495Z,24.68
2022-08-14T21:17:17.014Z,24.64
2022-08-14T21:20:26.067Z,24.62
2022-08-14T21:23:14.208Z,24.59
2022-08-14T21:26:03.620Z,23.68
2022-08-14T21:28:53.007Z,23.53
2022-08-14T21:31:42.239Z,24.08
2022-08-14T21:34:32.450Z,24.12
2022-08-14T21:37:20.331Z,24.07
2022-08-14T21:40:39.769Z,23.89
2022-08-14T21:43:23.391Z,23.08
2022-08-14T21:46:10.732Z,24.06
2022-08-14T21:49:01.544Z,22.80
2022-08-14T21:51:57.208Z,24.27
2022-08-14T21:54:50.191Z,24.27
2022-08-14T21:58:46.304Z,24.23
2022-08-14T22:00:53.029Z,23.82
2022-08-14T22:03:45.077Z,24.09
2022-08-14T22:06:42.584Z,23.86
2022-08-14T22:09:32.567Z,24.04
2022-08-14T22:12:47.176Z,24.04
2022-08-14T22:15:16.726Z,23.67
2022-08-14T22:17:44.686Z,23.24
2022-08-14T22:21:16.587Z,24.03
2022-08-14T23:05:38.808Z,22.94
2022-08-14T23:08:59.555Z,21.95
2022-08-14T23:10:59.737Z,22.77
2022-08-14T23:13:26.809Z,21.58
2022-08-14T23:15:58.274Z,20.46
2022-08-14T23:18:29.417Z,23.31
2022-08-14T23:20:57.739Z,22.17
2022-08-14T23:23:24.878Z,20.55
2022-08-14T23:26:00.277Z,21.01
2022-08-14T23:28:32.759Z,21.55
2022-08-14T23:31:02.879Z,21.43
2022-08-14T23:33:34.789Z,23.22
2022-08-14T23:36:04.651Z,19.90
2022-08-14T23:38:56.863Z,22.52
2022-08-14T23:41:25.470Z,18.00
2022-08-14T23:43:55.567Z,19.65
2022-08-14T23:46:35.315Z,18.11
2022-08-14T23:49:08.507Z,17.56
2022-08-14T23:51:39.815Z,22.83
2022-08-14T23:54:48.044Z,22.78
2022-08-14T23:57:02.350Z,19.01
2022-08-14T23:59:32.111Z,20.32
